createdAt,value
2019-06-08T00:01:34.588Z,16.40
2019-06-08T00:04:03.150Z,16.00
2019-06-08T00:06:31.792Z,16.40
2019-06-08T00:09:00.347Z,16.50
2019-06-08T00:11:28.931Z,16.40
2019-06-08T00:13:57.464Z,16.10
2019-06-08T00:16:26.038Z,16.20
2019-06-08T00:18:54.600Z,16.30
2019-06-08T00:21:24.154Z,16.10
2019-06-08T00:23:52.808Z,16.30
2019-06-08T00:26:22.145Z,16.40
2019-06-08T00:28:50.826Z,16.40
2019-06-08T00:31:20.104Z,16.00
2019-06-08T00:33:48.958Z,16.10
2019-06-08T00:36:18.677Z,16.00
2019-06-08T00:38:47.264Z,15.90
2019-06-08T00:41:16.964Z,16.00
2019-06-08T00:43:45.619Z,16.00
2019-06-08T00:46:15.222Z,16.30
2019-06-08T00:48:43.989Z,15.90
2019-06-08T00:51:12.548Z,16.00
2019-06-08T00:53:41.088Z,16.00
2019-06-08T00:56:09.678Z,16.10
2019-06-08T00:58:38.352Z,16.10
2019-06-08T01:01:07.067Z,15.60
2019-06-08T01:03:35.691Z,15.60
2019-06-08T01:06:04.268Z,15.80
2019-06-08T01:08:32.828Z,15.70
2019-06-08T01:11:01.399Z,15.90
2019-06-08T01:13:29.937Z,15.70
2019-06-08T01:15:58.505Z,15.50
2019-06-08T01:18:27.472Z,15.60
2019-06-08T01:20:56.120Z,15.90
2019-06-08T01:23:25.603Z,15.50
2019-06-08T01:25:54.158Z,16.00
2019-06-08T01:28:23.907Z,15.90
2019-06-08T01:30:52.649Z,15.60
2019-06-08T01:33:22.437Z,16.00
2019-06-08T01:35:51.166Z,15.60
2019-06-08T01:40:47.943Z,15.80
2019-06-08T01:43:16.505Z,15.50
2019-06-08T01:45:45.080Z,16.10
2019-06-08T01:48:20.133Z,16.10
2019-06-08T01:50:43.834Z,16.00
2019-06-08T01:53:12.382Z,15.90
2019-06-08T01:55:40.953Z,16.00
2019-06-08T01:58:09.503Z,15.50
2019-06-08T02:00:41.340Z,15.60
2019-06-08T02:03:08.296Z,15.50
2019-06-08T02:05:36.921Z,15.60
2019-06-08T02:08:05.829Z,15.70
2019-06-08T02:10:34.984Z,15.50
2019-06-08T02:13:03.658Z,16.00
2019-06-08T02:15:33.777Z,16.10
2019-06-08T02:18:02.412Z,15.80
2019-06-08T02:20:30.957Z,16.00
2019-06-08T02:22:59.541Z,15.50
2019-06-08T02:25:29.442Z,16.10
2019-06-08T02:27:58.526Z,15.80
2019-06-08T02:30:32.720Z,16.00
2019-06-08T02:32:59.961Z,16.20
2019-06-08T02:35:30.449Z,16.10
2019-06-08T02:37:58.882Z,16.00
2019-06-08T02:40:27.583Z,15.80
2019-06-08T02:42:56.210Z,16.30
2019-06-08T02:45:24.821Z,15.90
2019-06-08T02:47:53.386Z,15.90
2019-06-08T02:50:53.730Z,15.80
2019-06-08T02:53:23.440Z,16.20
2019-06-08T02:55:52.052Z,16.50
2019-06-08T03:00:50.867Z,15.90
2019-06-08T03:03:19.505Z,15.60
2019-06-08T03:05:49.959Z,15.70
2019-06-08T03:08:19.686Z,16.00
2019-06-08T03:10:53.528Z,16.00
2019-06-08T03:13:23.367Z,15.90
2019-06-08T03:15:51.933Z,15.70
2019-06-08T03:20:48.787Z,16.00
2019-06-08T03:23:17.488Z,16.30
2019-06-08T03:25:52.902Z,15.70
2019-06-08T03:28:16.314Z,16.20
2019-06-08T03:30:53.216Z,15.90
2019-06-08T03:33:15.089Z,15.80
2019-06-08T03:35:55.342Z,15.80
2019-06-08T03:38:13.898Z,16.20
2019-06-08T03:40:43.472Z,16.40
2019-06-08T03:43:12.700Z,15.90
2019-06-08T03:50:40.264Z,16.30
2019-06-08T03:53:09.562Z,15.80
2019-06-08T03:55:40.193Z,16.00
2019-06-08T03:58:10.443Z,15.90
2019-06-08T04:00:38.529Z,16.50
2019-06-08T04:03:07.169Z,16.30
2019-06-08T04:05:37.714Z,15.90
2019-06-08T04:08:05.946Z,16.20
2019-06-08T04:10:34.498Z,15.90
2019-06-08T04:13:03.067Z,16.10
2019-06-08T04:15:31.618Z,15.80
2019-06-08T04:18:00.185Z,15.80
2019-06-08T04:20:28.750Z,16.20
2019-06-08T04:22:57.326Z,16.30
2019-06-08T04:25:25.874Z,16.30
2019-06-08T04:27:54.418Z,16.50
2019-06-08T04:30:23.122Z,16.50
2019-06-08T04:35:19.921Z,16.10
2019-06-08T04:37:48.465Z,16.20
2019-06-08T04:40:17.397Z,16.30
2019-06-08T04:42:48.218Z,16.20
2019-06-08T04:45:17.966Z,16.10
2019-06-08T04:47:48.260Z,16.10
2019-06-08T04:50:23.413Z,15.90
2019-06-08T04:52:47.992Z,15.80
2019-06-08T04:55:17.395Z,15.80
2019-06-08T04:57:48.075Z,15.90
2019-06-08T05:00:16.635Z,16.00
2019-06-08T05:02:47.009Z,15.80
2019-06-08T05:05:15.733Z,16.00
2019-06-08T05:07:45.872Z,16.00
2019-06-08T05:12:43.415Z,16.30
2019-06-08T05:15:12.218Z,16.30
2019-06-08T05:17:41.326Z,15.90
2019-06-08T05:20:10.200Z,15.90
2019-06-08T05:22:39.469Z,15.80
2019-06-08T05:25:08.457Z,15.80
2019-06-08T05:27:37.008Z,15.80
2019-06-08T05:30:08.735Z,15.90
2019-06-08T05:32:37.309Z,15.80
2019-06-08T05:35:06.925Z,15.70
2019-06-08T05:37:35.476Z,15.70
2019-06-08T05:40:05.590Z,15.60
2019-06-08T05:42:34.144Z,15.60
2019-06-08T05:45:02.882Z,15.70
2019-06-08T05:49:59.660Z,16.20
2019-06-08T05:52:28.210Z,16.10
2019-06-08T05:54:56.796Z,16.00
2019-06-08T05:57:25.337Z,15.70
2019-06-08T05:59:53.924Z,15.70
2019-06-08T06:02:22.470Z,15.80
2019-06-08T06:04:52.193Z,15.90
2019-06-08T06:07:21.321Z,15.90
2019-06-08T06:09:51.098Z,15.80
2019-06-08T06:12:19.848Z,16.10
2019-06-08T06:14:49.104Z,15.70
2019-06-08T06:17:17.669Z,15.70
2019-06-08T06:19:47.287Z,15.70
2019-06-08T06:22:15.892Z,15.70
2019-06-08T06:24:45.508Z,16.20
2019-06-08T06:27:14.128Z,15.70
2019-06-08T06:29:43.525Z,16.30
2019-06-08T06:34:41.814Z,16.20
2019-06-08T06:37:10.541Z,16.10
2019-06-08T06:39:39.180Z,15.80
2019-06-08T06:42:08.094Z,15.70
2019-06-08T06:44:36.652Z,15.80
2019-06-08T06:47:05.369Z,15.90
2019-06-08T06:49:33.916Z,16.20
2019-06-08T06:54:30.693Z,15.90
2019-06-08T06:56:59.277Z,16.10
2019-06-08T06:59:27.836Z,16.50
2019-06-08T07:01:57.594Z,16.60
2019-06-08T07:04:26.500Z,16.60
2019-06-08T07:06:55.066Z,16.60
2019-06-08T07:09:23.617Z,16.40
2019-06-08T07:11:52.984Z,16.10
2019-06-08T07:14:21.643Z,16.30
2019-06-08T07:16:50.230Z,16.00
2019-06-08T07:19:18.776Z,16.10
2019-06-08T07:21:48.338Z,16.10
2019-06-08T07:24:17.011Z,16.20
2019-06-08T07:26:46.348Z,16.40
2019-06-08T07:29:14.952Z,16.60
2019-06-08T07:31:43.512Z,16.30
2019-06-08T07:34:12.062Z,16.20
2019-06-08T07:36:40.628Z,16.30
2019-06-08T07:39:09.262Z,16.60
2019-06-08T07:41:37.836Z,16.60
2019-06-08T07:44:06.440Z,16.30
2019-06-08T07:46:35.015Z,16.40
2019-06-08T07:49:03.553Z,16.20
2019-06-08T07:51:32.125Z,16.20
2019-06-08T07:54:00.683Z,16.30
2019-06-08T07:58:57.462Z,16.80
2019-06-08T08:01:35.929Z,16.60
2019-06-08T08:03:56.380Z,16.60
2019-06-08T08:06:25.075Z,16.30
2019-06-08T08:13:53.173Z,16.70
2019-06-08T08:16:21.832Z,16.80
2019-06-08T08:18:51.063Z,16.80
2019-06-08T08:21:25.804Z,16.80
2019-06-08T08:23:50.612Z,16.70
2019-06-08T08:26:20.221Z,16.50
2019-06-08T08:28:51.780Z,16.40
2019-06-08T08:31:19.192Z,17.00
2019-06-08T08:33:49.728Z,16.40
2019-06-08T08:36:20.881Z,16.60
2019-06-08T08:38:50.246Z,16.80
2019-06-08T08:41:18.431Z,16.80
2019-06-08T08:43:48.502Z,16.70
2019-06-08T08:46:17.356Z,17.00
2019-06-08T08:48:48.484Z,17.20
2019-06-08T08:51:18.001Z,17.20
2019-06-08T08:53:48.168Z,17.40
2019-06-08T08:56:18.170Z,17.40
2019-06-08T08:58:47.774Z,17.40
2019-06-08T09:01:20.286Z,17.20
2019-06-08T09:03:48.191Z,17.20
2019-06-08T09:06:18.163Z,17.80
2019-06-08T09:08:48.544Z,17.30
2019-06-08T09:11:17.593Z,17.40
2019-06-08T09:13:48.714Z,17.60
2019-06-08T09:16:17.673Z,17.50
2019-06-08T09:18:47.980Z,17.60
2019-06-08T09:21:18.542Z,17.50
2019-06-08T09:23:48.615Z,17.30
2019-06-08T09:26:17.723Z,17.50
2019-06-08T09:28:46.423Z,18.00
2019-06-08T09:31:14.970Z,18.10
2019-06-08T09:38:41.669Z,17.80
2019-06-08T09:41:10.219Z,17.50
2019-06-08T09:43:38.995Z,17.70
2019-06-08T09:46:09.103Z,17.80
2019-06-08T09:48:38.265Z,17.80
2019-06-08T09:51:09.307Z,18.10
2019-06-08T09:53:41.245Z,17.90
2019-06-08T09:56:09.757Z,17.90
2019-06-08T09:58:39.097Z,18.10
2019-06-08T10:01:09.145Z,18.00
2019-06-08T10:03:39.182Z,18.00
2019-06-08T10:06:11.575Z,17.80
2019-06-08T10:08:39.100Z,18.50
2019-06-08T10:11:09.617Z,18.30
2019-06-08T10:13:39.153Z,18.50
2019-06-08T10:16:10.199Z,18.70
2019-06-08T10:21:09.412Z,19.50
2019-06-08T10:23:41.169Z,19.40
2019-06-08T10:26:07.857Z,19.80
2019-06-08T10:28:38.860Z,19.40
2019-06-08T10:31:07.022Z,20.10
2019-06-08T10:33:37.738Z,19.90
2019-06-08T10:36:09.467Z,19.70
2019-06-08T10:38:38.435Z,20.00
2019-06-08T10:41:12.900Z,20.40
2019-06-08T10:43:38.570Z,20.30
2019-06-08T10:46:14.041Z,20.70
2019-06-08T10:48:37.786Z,20.70
2019-06-08T10:51:10.449Z,20.20
2019-06-08T10:53:48.189Z,20.80
2019-06-08T10:56:11.758Z,20.60
2019-06-08T10:58:37.597Z,20.60
2019-06-08T11:01:10.715Z,20.40
2019-06-08T11:03:38.658Z,21.30
2019-06-08T11:06:11.340Z,20.70
2019-06-08T11:08:38.879Z,20.20
2019-06-08T11:11:09.804Z,20.10
2019-06-08T11:13:37.477Z,20.40
2019-06-08T11:16:07.640Z,20.10
2019-06-08T11:21:07.221Z,20.20
2019-06-08T11:23:34.997Z,20.20
2019-06-08T11:26:10.695Z,20.40
2019-06-08T11:28:33.920Z,20.10
2019-06-08T11:31:03.865Z,20.50
2019-06-08T11:33:32.624Z,20.70
2019-06-08T11:36:04.187Z,20.80
2019-06-08T11:38:31.417Z,20.70
2019-06-08T11:41:02.057Z,21.10
2019-06-08T11:43:30.160Z,20.90
2019-06-08T11:46:00.433Z,21.20
2019-06-08T11:48:28.889Z,21.50
2019-06-08T11:50:58.529Z,21.40
2019-06-08T11:53:28.844Z,21.20
2019-06-08T11:55:58.647Z,21.30
2019-06-08T11:58:30.721Z,21.20
2019-06-08T12:01:04.730Z,21.50
2019-06-08T12:03:32.321Z,21.40
2019-06-08T12:06:02.204Z,21.90
2019-06-08T12:08:30.808Z,21.50
2019-06-08T12:11:02.101Z,21.40
2019-06-08T12:13:29.741Z,21.50
2019-06-08T12:15:58.900Z,21.50
2019-06-08T12:18:27.556Z,21.50
2019-06-08T12:20:58.318Z,21.50
2019-06-08T12:23:26.308Z,21.60
2019-06-08T12:25:54.895Z,21.50
2019-06-08T12:28:23.509Z,21.60
2019-06-08T12:30:52.076Z,21.80
2019-06-08T12:33:22.774Z,22.00
2019-06-08T12:35:50.970Z,21.80
2019-06-08T12:38:19.565Z,21.80
2019-06-08T12:40:48.684Z,21.50
2019-06-08T12:43:18.923Z,21.90
2019-06-08T12:48:19.589Z,22.20
2019-06-08T12:50:47.882Z,22.20
2019-06-08T12:53:20.592Z,21.90
2019-06-08T12:55:47.585Z,22.10
2019-06-08T12:58:19.906Z,22.70
2019-06-08T13:00:48.311Z,22.50
2019-06-08T13:03:17.158Z,23.00
2019-06-08T13:05:45.808Z,22.80
2019-06-08T13:08:15.291Z,22.80
2019-06-08T13:10:44.708Z,22.70
2019-06-08T13:13:14.411Z,22.50
2019-06-08T13:15:43.165Z,22.70
2019-06-08T13:18:12.425Z,22.70
2019-06-08T13:20:41.981Z,22.70
2019-06-08T13:23:11.575Z,22.60
2019-06-08T13:25:43.822Z,22.80
2019-06-08T13:28:15.183Z,22.50
2019-06-08T13:30:40.849Z,22.50
2019-06-08T13:33:09.934Z,22.60
2019-06-08T13:35:39.464Z,22.80
2019-06-08T13:38:08.849Z,22.60
2019-06-08T13:40:40.234Z,22.70
2019-06-08T13:43:08.292Z,23.00
2019-06-08T13:45:39.063Z,22.70
2019-06-08T13:48:08.903Z,23.00
2019-06-08T13:50:37.741Z,22.80
2019-06-08T13:53:10.633Z,22.70
2019-06-08T13:55:49.523Z,22.60
2019-06-08T13:58:06.780Z,22.70
2019-06-08T14:00:38.485Z,22.90
2019-06-08T14:03:08.539Z,23.00
2019-06-08T14:05:38.804Z,22.70
2019-06-08T14:08:10.525Z,22.90
2019-06-08T14:10:40.023Z,22.70
2019-06-08T14:13:08.871Z,23.30
2019-06-08T14:15:38.053Z,22.90
2019-06-08T14:18:08.792Z,23.20
2019-06-08T14:20:38.590Z,23.40
2019-06-08T14:23:08.995Z,23.50
2019-06-08T14:28:07.537Z,23.40
2019-06-08T14:30:37.757Z,23.60
2019-06-08T14:33:08.293Z,23.70
2019-06-08T14:35:37.085Z,24.00
2019-06-08T14:38:05.651Z,23.70
2019-06-08T14:40:34.262Z,23.70
2019-06-08T14:43:02.830Z,23.60
2019-06-08T14:45:31.380Z,22.90
2019-06-08T14:50:30.634Z,23.40
2019-06-08T14:52:59.180Z,23.00
2019-06-08T14:55:33.173Z,23.50
2019-06-08T14:57:58.272Z,23.40
2019-06-08T15:00:27.722Z,22.90
2019-06-08T15:02:58.978Z,23.30
2019-06-08T15:05:30.734Z,23.40
2019-06-08T15:08:00.397Z,23.50
2019-06-08T15:10:29.363Z,23.20
2019-06-08T15:12:57.937Z,23.60
2019-06-08T15:15:30.459Z,23.10
2019-06-08T15:17:58.282Z,23.90
2019-06-08T15:20:28.314Z,23.60
2019-06-08T15:22:57.923Z,23.80
2019-06-08T15:25:29.425Z,23.70
2019-06-08T15:27:58.250Z,24.00
2019-06-08T15:30:29.324Z,23.70
2019-06-08T15:32:58.590Z,23.30
2019-06-08T15:35:27.470Z,23.80
2019-06-08T15:37:58.280Z,23.60
2019-06-08T15:42:54.555Z,23.80
2019-06-08T15:45:24.241Z,24.00
2019-06-08T15:47:52.987Z,23.60
2019-06-08T15:50:22.230Z,23.40
2019-06-08T15:52:50.921Z,23.70
2019-06-08T15:55:19.663Z,23.50
2019-06-08T15:57:48.358Z,24.10
2019-06-08T16:00:18.423Z,23.70
2019-06-08T16:02:47.346Z,23.60
2019-06-08T16:05:16.273Z,23.90
2019-06-08T16:07:44.912Z,24.00
2019-06-08T16:10:14.112Z,23.70
2019-06-08T16:12:42.680Z,24.10
2019-06-08T16:15:11.786Z,24.20
2019-06-08T16:17:40.370Z,23.50
2019-06-08T16:20:08.972Z,23.90
2019-06-08T16:22:37.546Z,23.80
2019-06-08T16:25:07.448Z,23.60
2019-06-08T16:27:36.067Z,23.80
2019-06-08T16:30:09.438Z,23.60
2019-06-08T16:32:37.513Z,23.80
2019-06-08T16:35:06.718Z,23.80
2019-06-08T16:37:35.746Z,23.80
2019-06-08T16:40:06.082Z,23.80
2019-06-08T16:42:34.684Z,23.60
2019-06-08T16:45:04.012Z,23.90
2019-06-08T16:47:33.141Z,23.70
2019-06-08T16:50:01.742Z,23.40
2019-06-08T16:52:30.414Z,23.50
2019-06-08T16:57:27.288Z,23.70
2019-06-08T16:59:55.871Z,23.80
2019-06-08T17:02:24.412Z,24.50
2019-06-08T17:04:53.449Z,24.00
2019-06-08T17:07:21.997Z,23.80
2019-06-08T17:09:50.596Z,23.70
2019-06-08T17:12:19.112Z,24.00
2019-06-08T17:14:47.701Z,24.00
2019-06-08T17:17:16.249Z,24.00
2019-06-08T17:19:44.817Z,23.90
2019-06-08T17:22:13.512Z,23.90
2019-06-08T17:24:42.077Z,23.80
2019-06-08T17:27:25.771Z,23.40
2019-06-08T17:29:41.012Z,23.80
2019-06-08T17:32:09.585Z,23.70
2019-06-08T17:34:38.221Z,23.70
2019-06-08T17:37:06.688Z,23.60
2019-06-08T17:39:35.908Z,23.60
2019-06-08T17:42:04.708Z,23.40
2019-06-08T17:44:34.877Z,23.60
2019-06-08T17:47:03.524Z,23.50
2019-06-08T17:52:01.909Z,23.40
2019-06-08T17:54:30.576Z,23.40
2019-06-08T17:56:59.144Z,23.20
2019-06-08T17:59:27.714Z,23.30
2019-06-08T18:01:56.263Z,23.00
2019-06-08T18:04:24.824Z,23.40
2019-06-08T18:06:53.373Z,22.90
2019-06-08T18:09:21.936Z,22.70
2019-06-08T18:11:50.500Z,22.70
2019-06-08T18:14:19.083Z,22.50
2019-06-08T18:16:48.068Z,22.40
2019-06-08T18:19:28.471Z,22.30
2019-06-08T18:22:04.853Z,22.30
2019-06-08T18:24:28.336Z,21.70
2019-06-08T18:26:58.675Z,22.30
2019-06-08T18:29:27.768Z,21.90
2019-06-08T18:31:58.113Z,21.90
2019-06-08T18:34:28.462Z,21.60
2019-06-08T18:36:57.890Z,21.60
2019-06-08T18:39:28.285Z,21.40
2019-06-08T18:41:58.811Z,21.50
2019-06-08T18:44:28.424Z,21.50
2019-06-08T18:46:57.828Z,21.40
2019-06-08T18:49:28.855Z,21.10
2019-06-08T18:51:58.193Z,21.10
2019-06-08T18:54:27.840Z,21.20
2019-06-08T18:56:56.818Z,20.90
2019-06-08T18:59:25.376Z,20.60
2019-06-08T19:01:53.948Z,20.80
2019-06-08T19:04:22.484Z,20.70
2019-06-08T19:06:51.131Z,20.80
2019-06-08T19:09:19.746Z,20.70
2019-06-08T19:11:49.002Z,20.10
2019-06-08T19:14:20.902Z,20.60
2019-06-08T19:16:54.262Z,20.30
2019-06-08T19:19:19.108Z,20.20
2019-06-08T19:21:49.994Z,20.10
2019-06-08T19:24:18.323Z,19.90
2019-06-08T19:26:47.759Z,19.60
2019-06-08T19:29:19.422Z,19.60
2019-06-08T19:31:51.265Z,19.70
2019-06-08T19:34:18.247Z,19.40
2019-06-08T19:36:52.164Z,19.00
2019-06-08T19:39:17.847Z,19.20
2019-06-08T19:41:49.197Z,18.80
2019-06-08T19:44:18.350Z,18.90
2019-06-08T19:46:51.134Z,18.90
2019-06-08T19:49:17.427Z,18.60
2019-06-08T19:51:48.516Z,18.60
2019-06-08T19:54:18.328Z,18.30
2019-06-08T19:56:52.461Z,18.50
2019-06-08T19:59:18.251Z,18.00
2019-06-08T20:01:49.625Z,18.40
2019-06-08T20:04:18.230Z,17.90
2019-06-08T20:06:48.065Z,18.40
2019-06-08T20:09:17.550Z,17.60
2019-06-08T20:11:51.323Z,18.10
2019-06-08T20:14:16.341Z,17.60
2019-06-08T20:16:44.917Z,17.80
2019-06-08T20:19:13.453Z,17.40
2019-06-08T20:21:42.901Z,17.50
2019-06-08T20:24:11.568Z,17.10
2019-06-08T20:26:40.140Z,16.90
2019-06-08T20:29:13.510Z,17.20
2019-06-08T20:31:39.122Z,17.20
2019-06-08T20:34:07.825Z,17.20
2019-06-08T20:36:37.571Z,17.10
2019-06-08T20:39:08.300Z,17.00
2019-06-08T20:41:37.746Z,17.10
2019-06-08T20:44:08.555Z,16.70
2019-06-08T20:46:37.833Z,17.10
2019-06-08T20:49:08.423Z,16.70
2019-06-08T20:51:37.468Z,16.60
2019-06-08T20:54:07.907Z,16.30
2019-06-08T20:56:37.203Z,16.60
2019-06-08T20:59:07.999Z,16.30
2019-06-08T21:01:36.152Z,16.20
2019-06-08T21:04:04.749Z,15.90
2019-06-08T21:06:33.321Z,15.90
2019-06-08T21:09:01.865Z,15.60
2019-06-08T21:11:30.437Z,15.90
2019-06-08T21:13:58.981Z,15.40
2019-06-08T21:16:27.789Z,15.20
2019-06-08T21:18:57.969Z,15.50
2019-06-08T21:21:28.336Z,15.70
2019-06-08T21:24:00.948Z,15.10
2019-06-08T21:26:27.628Z,15.70
2019-06-08T21:29:00.077Z,15.60
2019-06-08T21:31:28.439Z,15.00
2019-06-08T21:34:00.427Z,15.40
2019-06-08T21:36:26.869Z,15.30
2019-06-08T21:39:00.016Z,15.40
2019-06-08T21:41:27.736Z,15.40
2019-06-08T21:43:59.635Z,15.00
2019-06-08T21:46:27.553Z,14.50
2019-06-08T21:48:58.881Z,14.50
2019-06-08T21:51:26.421Z,14.40
2019-06-08T21:53:56.820Z,14.50
2019-06-08T21:56:27.513Z,14.90
2019-06-08T21:58:57.231Z,14.70
2019-06-08T22:01:28.743Z,14.80
2019-06-08T22:03:58.967Z,14.10
2019-06-08T22:06:27.507Z,14.20
2019-06-08T22:08:58.871Z,14.10
2019-06-08T22:11:26.264Z,14.20
2019-06-08T22:13:54.903Z,14.00
2019-06-08T22:16:23.441Z,13.90
2019-06-08T22:18:52.988Z,14.00
2019-06-08T22:21:21.582Z,14.70
2019-06-08T22:23:51.826Z,14.30
2019-06-08T22:26:20.502Z,14.30
2019-06-08T22:28:49.064Z,14.30
2019-06-08T22:31:17.986Z,14.40
2019-06-08T22:33:48.316Z,14.10
2019-06-08T22:36:17.015Z,13.80
2019-06-08T22:38:47.626Z,14.30
2019-06-08T22:41:17.364Z,14.30
2019-06-08T22:43:48.143Z,14.20
2019-06-08T22:46:17.791Z,14.10
2019-06-08T22:48:47.768Z,14.10
2019-06-08T22:51:18.725Z,13.90
2019-06-08T22:53:47.891Z,13.80
2019-06-08T22:56:18.341Z,14.10
2019-06-08T22:58:47.997Z,13.60
2019-06-08T23:01:18.476Z,13.60
2019-06-08T23:03:47.603Z,13.60
2019-06-08T23:06:17.669Z,14.10
2019-06-08T23:08:48.068Z,13.50
2019-06-08T23:11:17.993Z,13.60
2019-06-08T23:13:47.302Z,13.80
2019-06-08T23:16:17.988Z,13.40
2019-06-08T23:18:47.791Z,13.80
2019-06-08T23:21:18.085Z,13.90
2019-06-08T23:23:47.678Z,13.90
2019-06-08T23:26:18.310Z,13.80
2019-06-08T23:28:47.255Z,13.60
2019-06-08T23:31:22.478Z,13.60
2019-06-08T23:33:48.203Z,13.60
2019-06-08T23:36:46.737Z,13.10
2019-06-08T23:38:48.129Z,13.40
2019-06-08T23:41:17.740Z,13.40
2019-06-08T23:43:48.096Z,13.30
2019-06-08T23:46:18.108Z,13.20
2019-06-08T23:48:48.404Z,13.10
2019-06-08T23:51:18.047Z,13.10
2019-06-08T23:53:47.746Z,13.10
2019-06-08T23:56:18.340Z,13.00
2019-06-08T23:58:48.237Z,12.90
